createdAt,value
2017-07-28T00:01:09.729Z,2.27
2017-07-28T00:03:37.179Z,1.90
2017-07-28T00:06:04.669Z,2.13
2017-07-28T00:08:32.153Z,1.80
2017-07-28T00:10:59.609Z,1.90
2017-07-28T00:13:27.097Z,2.63
2017-07-28T00:15:55.324Z,2.30
2017-07-28T00:18:22.800Z,3.00
2017-07-28T00:20:50.265Z,2.70
2017-07-28T00:23:17.721Z,2.50
2017-07-28T00:25:45.196Z,2.43
2017-07-28T00:28:12.646Z,2.67
2017-07-28T00:30:40.117Z,2.23
2017-07-28T00:33:07.593Z,2.57
2017-07-28T00:35:35.077Z,2.13
2017-07-28T00:38:02.542Z,2.20
2017-07-28T00:40:30.764Z,2.23
2017-07-28T00:42:58.220Z,2.20
2017-07-28T00:45:25.689Z,2.43
2017-07-28T00:47:53.143Z,2.57
2017-07-28T00:50:20.604Z,2.90
2017-07-28T00:52:48.080Z,2.23
2017-07-28T00:55:15.540Z,2.80
2017-07-28T00:57:43.044Z,4.40
2017-07-28T01:00:10.511Z,3.27
2017-07-28T01:02:37.986Z,2.60
2017-07-28T01:05:06.233Z,2.43
2017-07-28T01:07:33.689Z,2.30
2017-07-28T01:10:01.145Z,3.10
2017-07-28T01:12:28.630Z,2.90
2017-07-28T01:14:56.114Z,2.17
2017-07-28T01:17:24.349Z,2.13
2017-07-28T01:19:51.842Z,2.63
2017-07-28T01:22:19.322Z,2.10
2017-07-28T01:24:47.701Z,1.93
2017-07-28T01:27:15.144Z,2.30
2017-07-28T01:29:42.645Z,2.20
2017-07-28T01:32:10.877Z,2.43
2017-07-28T01:34:38.335Z,2.53
2017-07-28T01:37:05.820Z,2.37
2017-07-28T01:39:33.281Z,2.10
2017-07-28T01:42:08.935Z,2.00
2017-07-28T01:44:36.430Z,2.57
2017-07-28T01:47:04.617Z,2.17
2017-07-28T01:49:32.069Z,1.90
2017-07-28T01:52:00.295Z,3.30
2017-07-28T01:54:27.765Z,2.10
2017-07-28T01:56:55.234Z,2.47
2017-07-28T01:59:22.721Z,2.70
2017-07-28T02:01:50.190Z,2.50
2017-07-28T02:04:18.412Z,3.30
2017-07-28T02:06:45.882Z,2.07
2017-07-28T02:09:13.352Z,2.80
2017-07-28T02:11:40.812Z,3.37
2017-07-28T02:14:08.284Z,1.90
2017-07-28T02:16:35.744Z,2.77
2017-07-28T02:19:03.212Z,2.83
2017-07-28T02:21:30.688Z,2.50
2017-07-28T02:23:58.161Z,2.20
2017-07-28T02:26:26.603Z,2.10
2017-07-28T02:28:54.078Z,2.60
2017-07-28T02:31:21.559Z,2.53
2017-07-28T02:33:49.033Z,2.13
2017-07-28T02:36:16.501Z,3.10
2017-07-28T02:38:43.978Z,3.13
2017-07-28T02:41:12.218Z,3.73
2017-07-28T02:43:39.674Z,2.50
2017-07-28T02:46:07.184Z,2.70
2017-07-28T02:48:35.443Z,3.20
2017-07-28T02:51:02.914Z,2.53
2017-07-28T02:53:30.392Z,3.10
2017-07-28T02:55:58.622Z,2.60
2017-07-28T02:58:26.094Z,2.10
2017-07-28T03:00:53.567Z,2.60
2017-07-28T03:03:21.017Z,2.57
2017-07-28T03:05:48.488Z,2.03
2017-07-28T03:08:15.966Z,2.30
2017-07-28T03:10:43.454Z,2.70
2017-07-28T03:13:11.673Z,2.87
2017-07-28T03:15:39.161Z,2.30
2017-07-28T03:18:06.620Z,3.57
2017-07-28T03:20:34.079Z,2.30
2017-07-28T03:23:01.566Z,2.17
2017-07-28T03:25:29.030Z,3.03
2017-07-28T03:27:56.490Z,2.80
2017-07-28T03:30:24.311Z,2.73
2017-07-28T03:32:51.788Z,2.40
2017-07-28T03:35:19.254Z,2.57
2017-07-28T03:37:46.729Z,1.90
2017-07-28T03:40:14.193Z,2.40
2017-07-28T03:42:41.644Z,2.23
2017-07-28T03:45:09.110Z,2.40
2017-07-28T03:47:36.591Z,2.30
2017-07-28T03:50:04.082Z,2.43
2017-07-28T03:52:32.852Z,2.73
2017-07-28T03:55:00.322Z,2.60
2017-07-28T03:57:27.785Z,2.23
2017-07-28T03:59:55.253Z,2.17
2017-07-28T04:02:23.506Z,3.20
2017-07-28T04:04:50.968Z,2.77
2017-07-28T04:07:18.437Z,2.67
2017-07-28T04:09:45.890Z,2.70
2017-07-28T04:12:13.349Z,2.80
2017-07-28T04:14:40.837Z,3.10
2017-07-28T04:17:08.823Z,2.80
2017-07-28T04:19:36.281Z,2.50
2017-07-28T04:22:03.740Z,2.33
2017-07-28T04:24:31.184Z,2.67
2017-07-28T04:26:58.648Z,4.20
2017-07-28T04:29:26.120Z,4.47
2017-07-28T04:31:53.564Z,3.07
2017-07-28T04:34:21.025Z,2.80
2017-07-28T04:36:49.269Z,4.50
2017-07-28T04:39:16.745Z,2.60
2017-07-28T04:41:44.196Z,2.40
2017-07-28T04:44:11.700Z,2.40
2017-07-28T04:46:39.182Z,2.33
2017-07-28T04:49:06.647Z,4.17
2017-07-28T04:51:34.109Z,2.33
2017-07-28T04:54:01.572Z,2.50
2017-07-28T04:56:29.125Z,2.13
2017-07-28T04:58:56.581Z,3.10
2017-07-28T05:01:24.669Z,2.57
2017-07-28T05:03:52.125Z,3.30
2017-07-28T05:06:19.594Z,3.77
2017-07-28T05:08:47.049Z,2.40
2017-07-28T05:11:14.496Z,2.73
2017-07-28T05:13:41.957Z,3.60
2017-07-28T05:16:09.417Z,3.10
2017-07-28T05:18:36.883Z,2.43
2017-07-28T05:21:04.380Z,2.47
2017-07-28T05:23:31.826Z,2.30
2017-07-28T05:25:59.325Z,2.30
2017-07-28T05:28:27.717Z,2.60
2017-07-28T05:30:55.172Z,2.13
2017-07-28T05:33:23.384Z,2.27
2017-07-28T05:35:50.853Z,2.47
2017-07-28T05:38:18.322Z,2.70
2017-07-28T05:40:45.777Z,1.90
2017-07-28T05:43:14.644Z,2.20
2017-07-28T05:45:42.816Z,2.30
2017-07-28T05:48:11.043Z,2.30
2017-07-28T05:50:38.500Z,2.30
2017-07-28T05:53:05.961Z,1.53
2017-07-28T05:55:33.411Z,2.00
2017-07-28T05:58:00.877Z,2.33
2017-07-28T06:00:28.322Z,2.37
2017-07-28T06:02:55.783Z,1.83
2017-07-28T06:05:23.255Z,2.00
2017-07-28T06:07:50.698Z,2.40
2017-07-28T06:10:18.925Z,1.90
2017-07-28T06:12:46.390Z,2.60
2017-07-28T06:15:13.965Z,2.67
2017-07-28T06:17:41.417Z,2.43
2017-07-28T06:20:08.868Z,2.20
2017-07-28T06:22:36.322Z,1.90
2017-07-28T06:25:03.781Z,2.53
2017-07-28T06:27:31.244Z,2.20
2017-07-28T06:29:58.700Z,2.87
2017-07-28T06:32:26.145Z,2.17
2017-07-28T06:34:54.375Z,2.07
2017-07-28T06:37:21.829Z,2.57
2017-07-28T06:39:49.276Z,2.20
2017-07-28T06:42:16.740Z,3.00
2017-07-28T06:44:44.217Z,2.40
2017-07-28T06:47:11.681Z,2.10
2017-07-28T06:49:39.136Z,2.63
2017-07-28T06:52:06.594Z,2.43
2017-07-28T06:54:34.036Z,2.50
2017-07-28T06:57:01.489Z,2.77
2017-07-28T06:59:29.704Z,2.37
2017-07-28T07:01:57.169Z,3.40
2017-07-28T07:04:24.641Z,2.50
2017-07-28T07:06:52.094Z,2.30
2017-07-28T07:09:19.562Z,2.10
2017-07-28T07:11:47.011Z,2.23
2017-07-28T07:14:14.457Z,2.10
2017-07-28T07:16:41.921Z,2.17
2017-07-28T07:19:09.383Z,2.63
2017-07-28T07:21:37.524Z,3.10
2017-07-28T07:24:04.986Z,2.10
2017-07-28T07:26:32.432Z,2.20
2017-07-28T07:29:00.356Z,2.83
2017-07-28T07:31:27.804Z,2.10
2017-07-28T07:33:56.322Z,2.70
2017-07-28T07:36:23.764Z,1.93
2017-07-28T07:38:51.236Z,2.07
2017-07-28T07:41:18.689Z,1.90
2017-07-28T07:43:47.500Z,1.70
2017-07-28T07:46:14.953Z,2.00
2017-07-28T07:48:42.476Z,1.70
2017-07-28T07:51:09.919Z,2.30
2017-07-28T07:53:37.377Z,1.20
2017-07-28T07:56:05.145Z,1.90
2017-07-28T07:58:32.604Z,2.40
2017-07-28T08:01:00.056Z,1.97
2017-07-28T08:03:27.517Z,1.60
2017-07-28T08:05:54.996Z,1.70
2017-07-28T08:08:22.464Z,1.90
2017-07-28T08:10:49.904Z,1.63
2017-07-28T08:13:17.355Z,1.87
2017-07-28T08:15:44.805Z,1.60
2017-07-28T08:18:12.265Z,1.90
2017-07-28T08:20:39.725Z,1.90
2017-07-28T08:23:07.944Z,1.53
2017-07-28T08:25:35.393Z,1.90
2017-07-28T08:28:02.853Z,2.23
2017-07-28T08:30:30.297Z,2.00
2017-07-28T08:32:58.545Z,2.00
2017-07-28T08:35:26.039Z,2.40
2017-07-28T08:37:54.244Z,3.53
2017-07-28T08:40:21.704Z,1.30
2017-07-28T08:42:49.165Z,1.60
2017-07-28T08:45:16.639Z,1.63
2017-07-28T08:47:44.089Z,1.47
2017-07-28T08:50:11.532Z,2.10
2017-07-28T08:52:38.988Z,1.50
2017-07-28T08:55:07.212Z,1.23
2017-07-28T08:57:34.657Z,2.10
2017-07-28T09:00:02.121Z,2.17
2017-07-28T09:02:29.579Z,1.80
2017-07-28T09:04:57.037Z,1.40
2017-07-28T09:07:24.477Z,1.70
2017-07-28T09:09:52.709Z,1.80
2017-07-28T09:12:20.165Z,1.30
2017-07-28T09:14:47.664Z,1.23
2017-07-28T09:17:15.115Z,2.10
2017-07-28T09:19:42.564Z,1.90
2017-07-28T09:22:09.996Z,1.40
2017-07-28T09:24:37.444Z,2.40
2017-07-28T09:27:04.906Z,2.00
2017-07-28T09:29:32.371Z,1.40
2017-07-28T09:31:59.817Z,1.50
2017-07-28T09:34:27.277Z,1.70
2017-07-28T09:36:55.496Z,1.70
2017-07-28T09:39:22.961Z,1.93
2017-07-28T09:41:50.414Z,1.63
2017-07-28T09:44:17.865Z,1.33
2017-07-28T09:46:45.337Z,1.20
2017-07-28T09:49:12.820Z,1.40
2017-07-28T09:51:40.274Z,1.13
2017-07-28T09:54:07.741Z,1.03
2017-07-28T09:56:35.197Z,1.50
2017-07-28T09:59:02.660Z,1.83
2017-07-28T10:01:30.168Z,1.87
2017-07-28T10:03:57.612Z,1.83
2017-07-28T10:06:25.069Z,1.27
2017-07-28T10:08:52.529Z,1.83
2017-07-28T10:11:19.987Z,1.80
2017-07-28T10:13:47.445Z,1.67
2017-07-28T10:16:14.902Z,1.50
2017-07-28T10:18:42.354Z,1.73
2017-07-28T10:21:09.826Z,1.27
2017-07-28T10:23:37.277Z,1.77
2017-07-28T10:26:04.737Z,1.70
2017-07-28T10:28:33.833Z,1.53
2017-07-28T10:31:01.288Z,1.43
2017-07-28T10:33:29.508Z,1.53
2017-07-28T10:35:56.956Z,1.67
2017-07-28T10:38:24.416Z,1.40
2017-07-28T10:40:51.885Z,1.43
2017-07-28T10:43:19.342Z,1.60
2017-07-28T10:45:46.784Z,1.30
2017-07-28T10:48:14.262Z,1.47
2017-07-28T10:50:41.784Z,1.57
2017-07-28T10:53:09.241Z,1.17
2017-07-28T10:55:36.696Z,1.57
2017-07-28T10:58:04.140Z,1.50
2017-07-28T11:00:31.596Z,1.13
2017-07-28T11:02:59.052Z,1.90
2017-07-28T11:05:26.513Z,1.50
2017-07-28T11:07:53.956Z,1.27
2017-07-28T11:10:21.416Z,1.60
2017-07-28T11:12:49.384Z,1.60
2017-07-28T11:15:16.840Z,1.30
2017-07-28T11:17:45.070Z,1.33
2017-07-28T11:20:12.529Z,1.67
2017-07-28T11:22:40.017Z,2.00
2017-07-28T11:25:07.475Z,1.33
2017-07-28T11:27:34.928Z,1.87
2017-07-28T11:30:02.380Z,1.63
2017-07-28T11:32:29.826Z,1.50
2017-07-28T11:34:57.289Z,1.50
2017-07-28T11:37:24.752Z,1.80
2017-07-28T11:39:52.218Z,1.70
2017-07-28T11:42:19.677Z,1.43
2017-07-28T11:44:47.125Z,1.40
2017-07-28T11:47:14.574Z,1.40
2017-07-28T11:49:42.801Z,1.30
2017-07-28T11:52:10.261Z,1.50
2017-07-28T11:54:37.725Z,1.03
2017-07-28T11:57:05.171Z,1.33
2017-07-28T11:59:32.633Z,1.73
2017-07-28T12:02:00.097Z,1.80
2017-07-28T12:04:27.557Z,1.80
2017-07-28T12:06:55.008Z,1.20
2017-07-28T12:09:22.452Z,1.87
2017-07-28T12:11:50.671Z,1.10
2017-07-28T12:14:18.112Z,1.73
2017-07-28T12:16:45.565Z,1.97
2017-07-28T12:19:13.532Z,1.40
2017-07-28T12:21:41.756Z,2.00
2017-07-28T12:24:09.205Z,1.70
2017-07-28T12:26:36.649Z,1.10
2017-07-28T12:29:04.107Z,1.70
2017-07-28T12:31:31.565Z,1.33
2017-07-28T12:33:59.025Z,1.80
2017-07-28T12:36:27.240Z,1.23
2017-07-28T12:38:54.697Z,1.70
2017-07-28T12:41:22.158Z,1.70
2017-07-28T12:43:49.621Z,1.33
2017-07-28T12:46:17.064Z,1.63
2017-07-28T12:48:44.517Z,1.40
2017-07-28T12:51:12.741Z,1.43
2017-07-28T12:53:40.200Z,1.40
2017-07-28T12:56:07.653Z,1.90
2017-07-28T12:58:35.101Z,1.70
2017-07-28T13:01:02.557Z,1.30
2017-07-28T13:03:30.010Z,1.33
2017-07-28T13:05:58.229Z,1.30
2017-07-28T13:08:25.666Z,1.57
2017-07-28T13:10:53.121Z,1.60
2017-07-28T13:13:21.324Z,1.50
2017-07-28T13:15:48.788Z,1.67
2017-07-28T13:18:16.245Z,1.80
2017-07-28T13:20:43.700Z,1.20
2017-07-28T13:23:11.152Z,1.37
2017-07-28T13:25:39.364Z,1.27
2017-07-28T13:28:06.820Z,3.27
2017-07-28T13:30:34.281Z,1.60
2017-07-28T13:33:01.746Z,1.47
2017-07-28T13:35:29.188Z,1.20
2017-07-28T13:37:56.636Z,1.30
2017-07-28T13:40:24.876Z,1.43
2017-07-28T13:42:52.336Z,1.50
2017-07-28T13:45:19.789Z,1.70
2017-07-28T13:47:47.246Z,1.50
2017-07-28T13:50:14.696Z,1.30
2017-07-28T13:52:42.162Z,1.50
2017-07-28T13:55:09.627Z,1.30
2017-07-28T13:57:37.072Z,1.17
2017-07-28T14:00:04.536Z,1.30
2017-07-28T14:02:32.002Z,1.20
2017-07-28T14:04:59.460Z,1.13
2017-07-28T14:07:26.904Z,1.10
2017-07-28T14:09:55.128Z,2.80
2017-07-28T14:12:22.588Z,1.30
2017-07-28T14:14:50.041Z,1.23
2017-07-28T14:17:17.507Z,2.00
2017-07-28T14:19:44.952Z,1.10
2017-07-28T14:22:12.417Z,1.60
2017-07-28T14:24:39.853Z,1.30
2017-07-28T14:27:08.072Z,1.40
2017-07-28T14:29:35.529Z,1.20
2017-07-28T14:32:03.013Z,1.70
2017-07-28T14:34:30.456Z,1.50
2017-07-28T14:36:57.925Z,1.43
2017-07-28T14:39:25.372Z,1.40
2017-07-28T14:41:52.842Z,1.20
2017-07-28T14:44:20.321Z,1.27
2017-07-28T14:46:47.804Z,1.30
2017-07-28T14:49:15.262Z,1.67
2017-07-28T14:51:42.721Z,1.30
2017-07-28T14:54:10.189Z,1.30
2017-07-28T14:56:37.644Z,1.10
2017-07-28T14:59:05.105Z,1.40
2017-07-28T15:01:32.577Z,1.40
2017-07-28T15:04:00.657Z,1.73
2017-07-28T15:06:28.111Z,1.60
2017-07-28T15:08:55.568Z,1.80
2017-07-28T15:11:23.055Z,1.27
2017-07-28T15:13:50.544Z,1.47
2017-07-28T15:16:18.781Z,1.23
2017-07-28T15:18:47.533Z,1.23
2017-07-28T15:21:15.748Z,1.30
2017-07-28T15:23:43.213Z,1.60
2017-07-28T15:26:10.656Z,1.10
2017-07-28T15:28:38.136Z,1.10
2017-07-28T15:31:05.591Z,1.13
2017-07-28T15:33:33.049Z,2.40
2017-07-28T15:36:00.917Z,1.50
2017-07-28T15:38:28.365Z,1.00
2017-07-28T15:40:55.824Z,1.70
2017-07-28T15:43:23.283Z,1.10
2017-07-28T15:45:51.517Z,1.50
2017-07-28T15:48:18.981Z,1.27
2017-07-28T15:50:47.750Z,1.27
2017-07-28T15:53:15.224Z,1.17
2017-07-28T15:55:42.662Z,1.70
2017-07-28T15:58:10.148Z,1.20
2017-07-28T16:03:14.301Z,1.50
2017-07-28T16:05:41.771Z,1.13
2017-07-28T16:08:09.222Z,1.47
2017-07-28T16:10:36.668Z,1.47
2017-07-28T16:13:04.135Z,1.10
2017-07-28T16:15:31.974Z,1.30
2017-07-28T16:17:59.428Z,1.20
2017-07-28T16:20:28.217Z,1.10
2017-07-28T16:22:56.441Z,1.37
2017-07-28T16:25:23.902Z,1.37
2017-07-28T16:27:51.352Z,1.10
2017-07-28T16:30:18.840Z,1.20
2017-07-28T16:32:46.291Z,1.10
2017-07-28T16:35:13.765Z,1.20
2017-07-28T16:37:41.208Z,1.37
2017-07-28T16:40:08.713Z,1.10
2017-07-28T16:42:36.160Z,1.00
2017-07-28T16:45:03.624Z,1.33
2017-07-28T16:47:31.117Z,1.50
2017-07-28T16:49:58.566Z,1.73
2017-07-28T16:52:26.032Z,1.57
2017-07-28T16:54:54.283Z,1.20
2017-07-28T16:57:23.516Z,1.43
2017-07-28T16:59:50.973Z,1.30
2017-07-28T17:02:18.441Z,1.60
2017-07-28T17:04:46.003Z,1.23
2017-07-28T17:07:13.454Z,1.00
2017-07-28T17:09:40.909Z,1.73
2017-07-28T17:12:09.215Z,2.20
2017-07-28T17:14:36.689Z,1.07
2017-07-28T17:17:04.937Z,1.47
2017-07-28T17:19:32.409Z,1.37
2017-07-28T17:21:59.878Z,1.10
2017-07-28T17:24:27.341Z,1.23
2017-07-28T17:26:54.790Z,1.30
2017-07-28T17:29:22.278Z,1.30
2017-07-28T17:31:49.726Z,1.50
2017-07-28T17:34:17.197Z,1.30
2017-07-28T17:36:44.646Z,1.23
2017-07-28T17:39:12.140Z,1.50
2017-07-28T17:41:40.361Z,1.53
2017-07-28T17:44:07.845Z,1.40
2017-07-28T17:46:35.308Z,1.30
2017-07-28T17:49:02.894Z,1.33
2017-07-28T17:51:30.340Z,1.60
2017-07-28T17:53:57.823Z,1.27
2017-07-28T17:56:26.052Z,1.53
2017-07-28T17:58:53.496Z,1.10
2017-07-28T18:01:21.001Z,1.60
2017-07-28T18:03:48.561Z,1.10
2017-07-28T18:06:16.016Z,1.30
2017-07-28T18:08:43.469Z,1.03
2017-07-28T18:11:10.925Z,1.17
2017-07-28T18:13:38.392Z,1.57
2017-07-28T18:16:06.080Z,1.87
2017-07-28T18:18:33.541Z,0.93
2017-07-28T18:21:00.993Z,1.47
2017-07-28T18:23:28.464Z,1.23
2017-07-28T18:25:55.944Z,1.57
2017-07-28T18:28:23.403Z,1.90
2017-07-28T18:30:50.864Z,1.80
2017-07-28T18:33:18.343Z,1.67
2017-07-28T18:35:45.818Z,2.27
2017-07-28T18:38:14.038Z,1.90
2017-07-28T18:40:42.080Z,1.50
2017-07-28T18:43:10.322Z,1.83
2017-07-28T18:45:37.784Z,2.20
2017-07-28T18:48:06.164Z,2.13
2017-07-28T18:50:33.616Z,2.50
2017-07-28T18:53:01.063Z,1.83
2017-07-28T18:55:28.565Z,2.10
2017-07-28T18:57:56.028Z,1.50
2017-07-28T19:00:23.513Z,2.20
2017-07-28T19:02:51.735Z,1.63
2017-07-28T19:05:20.010Z,1.50
2017-07-28T19:07:48.561Z,2.00
2017-07-28T19:10:16.789Z,1.60
2017-07-28T19:12:44.249Z,1.90
2017-07-28T19:15:11.716Z,2.30
2017-07-28T19:17:39.165Z,1.87
2017-07-28T19:20:06.616Z,1.60
2017-07-28T19:22:34.068Z,1.93
2017-07-28T19:25:02.321Z,1.97
2017-07-28T19:27:29.771Z,2.00
2017-07-28T19:29:57.245Z,2.40
2017-07-28T19:32:24.709Z,2.10
2017-07-28T19:34:52.191Z,1.87
2017-07-28T19:37:19.665Z,2.03
2017-07-28T19:39:47.899Z,2.20
2017-07-28T19:42:15.365Z,1.90
2017-07-28T19:44:42.820Z,1.90
2017-07-28T19:47:10.304Z,2.20
2017-07-28T19:49:37.779Z,2.13
2017-07-28T19:52:05.279Z,2.60
2017-07-28T19:54:32.764Z,2.23
2017-07-28T19:57:00.240Z,2.30
2017-07-28T19:59:27.699Z,1.93
2017-07-28T20:02:01.661Z,2.00
2017-07-28T20:04:29.905Z,1.90
2017-07-28T20:06:57.356Z,1.70
2017-07-28T20:09:24.825Z,2.47
2017-07-28T20:11:52.289Z,1.80
2017-07-28T20:14:19.781Z,1.80
2017-07-28T20:16:47.245Z,2.00
2017-07-28T20:19:14.713Z,1.80
2017-07-28T20:21:42.953Z,2.00
2017-07-28T20:24:10.414Z,1.80
2017-07-28T20:26:37.877Z,2.10
2017-07-28T20:29:05.341Z,1.73
2017-07-28T20:31:32.797Z,1.60
2017-07-28T20:34:00.263Z,1.87
2017-07-28T20:36:27.738Z,1.53
2017-07-28T20:38:55.162Z,1.50
2017-07-28T20:41:22.634Z,1.30
2017-07-28T20:43:50.097Z,1.60
2017-07-28T20:46:17.556Z,2.20
2017-07-28T20:48:45.044Z,1.93
2017-07-28T20:51:12.509Z,1.93
2017-07-28T20:53:39.964Z,1.80
2017-07-28T20:56:07.415Z,1.93
2017-07-28T20:58:34.889Z,1.67
2017-07-28T21:01:02.365Z,1.40
2017-07-28T21:03:29.817Z,2.10
2017-07-28T21:05:57.304Z,1.30
2017-07-28T21:08:24.771Z,1.87
2017-07-28T21:10:52.231Z,1.63
2017-07-28T21:13:19.680Z,1.80
2017-07-28T21:15:47.172Z,1.43
2017-07-28T21:18:14.609Z,1.50
2017-07-28T21:20:42.053Z,1.70
2017-07-28T21:23:09.522Z,1.40
2017-07-28T21:25:36.981Z,1.63
2017-07-28T21:28:04.463Z,1.30
2017-07-28T21:30:33.214Z,1.53
2017-07-28T21:33:00.660Z,1.30
2017-07-28T21:35:28.137Z,1.87
2017-07-28T21:37:55.608Z,1.60
2017-07-28T21:40:23.065Z,2.20
2017-07-28T21:42:51.385Z,1.40
2017-07-28T21:45:18.861Z,1.97
2017-07-28T21:47:46.325Z,1.33
2017-07-28T21:50:13.789Z,2.03
2017-07-28T21:52:41.244Z,1.60
2017-07-28T21:55:08.718Z,1.67
2017-07-28T21:57:36.185Z,1.30
2017-07-28T22:00:04.425Z,1.50
2017-07-28T22:02:31.884Z,2.63
2017-07-28T22:04:59.344Z,1.80
2017-07-28T22:07:26.829Z,1.83
2017-07-28T22:09:54.279Z,2.30
2017-07-28T22:12:21.720Z,1.70
2017-07-28T22:14:51.101Z,1.60
2017-07-28T22:17:18.557Z,1.60
2017-07-28T22:19:46.774Z,1.90
2017-07-28T22:22:14.232Z,1.83
2017-07-28T22:24:41.690Z,2.40
2017-07-28T22:27:09.157Z,1.63
2017-07-28T22:29:36.601Z,1.73
2017-07-28T22:32:04.118Z,2.07
2017-07-28T22:34:31.598Z,1.80
2017-07-28T22:36:59.043Z,1.73
2017-07-28T22:39:27.429Z,1.77
2017-07-28T22:41:54.893Z,1.83
2017-07-28T22:44:22.346Z,1.63
2017-07-28T22:46:49.820Z,1.50
2017-07-28T22:49:17.288Z,1.50
2017-07-28T22:51:44.788Z,1.73
2017-07-28T22:54:12.272Z,1.97
2017-07-28T22:56:39.737Z,1.97
2017-07-28T22:59:07.200Z,1.80
2017-07-28T23:01:34.669Z,1.67
2017-07-28T23:04:02.139Z,1.50
2017-07-28T23:06:29.601Z,1.57
2017-07-28T23:08:57.060Z,1.77
2017-07-28T23:11:24.525Z,1.90
2017-07-28T23:13:52.001Z,1.60
2017-07-28T23:16:19.456Z,2.03
2017-07-28T23:18:46.906Z,1.57
2017-07-28T23:21:14.360Z,1.80
2017-07-28T23:23:41.821Z,1.80
2017-07-28T23:26:09.288Z,1.87
2017-07-28T23:28:36.748Z,1.77
2017-07-28T23:31:04.241Z,1.83
2017-07-28T23:33:31.806Z,1.40
2017-07-28T23:35:59.265Z,1.60
2017-07-28T23:38:26.737Z,1.40
2017-07-28T23:40:55.405Z,1.50
2017-07-28T23:43:23.633Z,1.77
2017-07-28T23:45:51.857Z,1.60
2017-07-28T23:48:19.384Z,1.57
2017-07-28T23:50:47.601Z,1.70
2017-07-28T23:53:15.080Z,1.30
2017-07-28T23:55:42.542Z,2.13
2017-07-28T23:58:10.046Z,1.70
